createdAt,value
2022-12-08T00:01:33.755Z,22.00
2022-12-08T00:04:55.642Z,21.60
2022-12-08T00:08:15.835Z,21.37
2022-12-08T00:11:17.694Z,22.97
2022-12-08T00:14:20.460Z,22.53
2022-12-08T00:17:22.024Z,22.37
2022-12-08T00:20:23.605Z,22.47
2022-12-08T00:23:25.268Z,24.20
2022-12-08T00:26:27.690Z,27.33
2022-12-08T00:29:29.399Z,22.50
2022-12-08T00:32:31.001Z,22.70
2022-12-08T00:35:32.611Z,23.83
2022-12-08T00:38:34.542Z,25.70
2022-12-08T00:41:54.994Z,26.57
2022-12-08T00:44:56.578Z,26.63
2022-12-08T00:47:58.130Z,25.77
2022-12-08T00:50:59.813Z,28.00
2022-12-08T00:54:01.405Z,23.80
2022-12-08T00:57:03.105Z,32.57
2022-12-08T01:00:05.675Z,23.40
2022-12-08T01:03:10.732Z,27.77
2022-12-08T01:06:12.607Z,22.27
2022-12-08T01:09:16.070Z,21.63
2022-12-08T01:12:17.662Z,25.23
2022-12-08T01:15:19.281Z,24.33
2022-12-08T01:18:20.878Z,18.10
2022-12-08T01:21:22.526Z,21.90
2022-12-08T01:24:24.228Z,25.30
2022-12-08T01:27:25.922Z,20.57
2022-12-08T01:30:27.523Z,21.63
2022-12-08T01:33:29.339Z,22.90
2022-12-08T01:36:32.919Z,20.47
2022-12-08T01:39:35.113Z,19.90
2022-12-08T01:42:38.221Z,27.80
2022-12-08T01:45:39.844Z,20.57
2022-12-08T01:48:41.642Z,22.97
2022-12-08T01:51:57.054Z,25.10
2022-12-08T01:55:04.196Z,22.93
2022-12-08T01:58:14.397Z,21.57
2022-12-08T02:01:17.173Z,23.97
2022-12-08T02:04:18.809Z,22.47
2022-12-08T02:07:21.546Z,23.53
2022-12-08T02:10:24.725Z,23.53
2022-12-08T02:13:26.456Z,26.57
2022-12-08T02:16:44.519Z,23.63
2022-12-08T02:20:23.123Z,23.57
2022-12-08T02:24:04.724Z,20.93
2022-12-08T02:27:55.835Z,22.73
2022-12-08T02:31:22.621Z,26.73
2022-12-08T02:34:31.693Z,24.80
2022-12-08T02:37:38.699Z,26.10
2022-12-08T02:40:56.785Z,23.80
2022-12-08T02:44:10.841Z,22.47
2022-12-08T02:47:16.692Z,25.33
2022-12-08T02:50:18.968Z,21.50
2022-12-08T02:53:20.614Z,21.40
2022-12-08T02:56:48.230Z,23.83
2022-12-08T02:59:56.667Z,29.00
2022-12-08T03:03:01.166Z,26.50
2022-12-08T03:06:19.258Z,26.37
2022-12-08T03:09:59.773Z,25.23
2022-12-08T03:13:10.636Z,24.70
2022-12-08T03:16:16.657Z,23.07
2022-12-08T03:19:22.318Z,26.37
2022-12-08T03:22:27.426Z,30.10
2022-12-08T03:25:33.691Z,30.47
2022-12-08T03:28:35.412Z,27.90
2022-12-08T03:31:41.721Z,29.43
2022-12-08T03:34:46.034Z,29.90
2022-12-08T03:37:47.707Z,27.17
2022-12-08T03:41:09.304Z,25.93
2022-12-08T03:44:10.920Z,26.97
2022-12-08T03:47:12.560Z,27.57
2022-12-08T03:50:14.229Z,26.10
2022-12-08T03:53:16.027Z,25.10
2022-12-08T03:56:31.166Z,27.83
2022-12-08T03:59:32.773Z,27.50
2022-12-08T04:02:34.479Z,23.90
2022-12-08T04:05:36.272Z,28.53
2022-12-08T04:08:39.361Z,27.10
2022-12-08T04:11:41.034Z,30.83
2022-12-08T04:14:43.190Z,25.87
2022-12-08T04:17:51.005Z,26.87
2022-12-08T04:20:53.020Z,25.43
2022-12-08T04:24:00.772Z,27.73
2022-12-08T04:27:03.049Z,24.57
2022-12-08T04:30:05.593Z,25.20
2022-12-08T04:33:07.449Z,23.00
2022-12-08T04:36:09.362Z,24.70
2022-12-08T04:39:11.030Z,27.50
2022-12-08T04:42:12.624Z,28.20
2022-12-08T04:45:14.932Z,27.97
2022-12-08T04:48:16.991Z,25.70
2022-12-08T04:51:20.097Z,24.80
2022-12-08T04:54:21.746Z,25.93
2022-12-08T04:57:23.364Z,24.10
2022-12-08T05:00:25.084Z,28.57
2022-12-08T05:03:29.061Z,29.07
2022-12-08T05:06:30.676Z,24.77
2022-12-08T05:09:34.204Z,24.30
2022-12-08T05:12:35.844Z,22.43
2022-12-08T05:15:37.472Z,27.07
2022-12-08T05:18:40.350Z,30.63
2022-12-08T05:21:42.212Z,22.77
2022-12-08T05:24:47.407Z,26.83
2022-12-08T05:27:49.614Z,31.33
2022-12-08T05:30:51.965Z,32.50
2022-12-08T05:33:55.098Z,30.93
2022-12-08T05:36:58.063Z,30.63
2022-12-08T05:39:59.703Z,31.43
2022-12-08T05:43:01.386Z,29.30
2022-12-08T05:46:03.216Z,31.87
2022-12-08T05:49:08.177Z,30.00
2022-12-08T05:52:09.996Z,29.30
2022-12-08T05:55:11.813Z,32.77
2022-12-08T05:58:21.345Z,30.70
2022-12-08T06:01:31.454Z,27.63
2022-12-08T06:04:33.116Z,27.73
2022-12-08T06:07:34.736Z,31.43
2022-12-08T06:10:38.937Z,33.97
2022-12-08T06:13:40.534Z,30.27
2022-12-08T06:16:42.419Z,34.80
2022-12-08T06:19:46.073Z,30.73
2022-12-08T06:22:47.762Z,30.10
2022-12-08T06:25:51.499Z,29.73
2022-12-08T06:28:53.316Z,25.30
2022-12-08T06:31:55.001Z,29.23
2022-12-08T06:34:56.626Z,29.13
2022-12-08T06:37:58.225Z,28.30
2022-12-08T06:41:00.408Z,29.57
2022-12-08T06:44:02.002Z,27.30
2022-12-08T06:47:03.625Z,29.13
2022-12-08T06:50:06.510Z,27.93
2022-12-08T06:53:08.545Z,27.93
2022-12-08T06:56:11.289Z,27.20
2022-12-08T06:59:13.043Z,27.50
2022-12-08T07:02:14.687Z,29.00
2022-12-08T07:05:17.034Z,26.87
2022-12-08T07:08:18.835Z,27.30
2022-12-08T07:11:22.230Z,29.30
2022-12-08T07:14:24.879Z,28.57
2022-12-08T07:17:26.712Z,28.47
2022-12-08T07:20:28.483Z,29.70
2022-12-08T07:23:30.209Z,29.77
2022-12-08T07:26:32.492Z,26.70
2022-12-08T07:29:34.150Z,27.63
2022-12-08T07:32:37.904Z,30.77
2022-12-08T07:35:39.534Z,30.60
2022-12-08T07:38:41.796Z,34.67
2022-12-08T07:41:43.422Z,28.73
2022-12-08T07:44:45.013Z,30.10
2022-12-08T07:47:46.682Z,28.10
2022-12-08T07:50:48.485Z,28.60
2022-12-08T07:53:54.221Z,28.63
2022-12-08T07:56:59.456Z,27.23
2022-12-08T08:00:01.082Z,29.00
2022-12-08T08:03:03.063Z,27.37
2022-12-08T08:06:05.278Z,26.90
2022-12-08T08:09:06.968Z,28.37
2022-12-08T08:12:30.332Z,27.77
2022-12-08T08:15:32.275Z,25.13
2022-12-08T08:18:35.175Z,30.33
2022-12-08T08:21:45.383Z,25.60
2022-12-08T08:24:49.840Z,25.10
2022-12-08T08:27:51.481Z,26.23
2022-12-08T08:30:53.568Z,25.27
2022-12-08T08:33:56.873Z,26.60
2022-12-08T08:36:58.465Z,24.73
2022-12-08T08:40:00.318Z,25.23
2022-12-08T08:43:02.784Z,23.87
2022-12-08T08:46:06.366Z,27.60
2022-12-08T08:49:08.049Z,26.50
2022-12-08T08:52:10.203Z,30.23
2022-12-08T08:55:11.813Z,22.27
2022-12-08T08:58:13.510Z,25.57
2022-12-08T09:01:17.619Z,24.90
2022-12-08T09:04:20.893Z,20.40
2022-12-08T09:07:22.739Z,23.37
2022-12-08T09:10:24.469Z,23.20
2022-12-08T09:13:26.130Z,22.33
2022-12-08T09:16:30.806Z,25.57
2022-12-08T09:19:32.680Z,24.17
2022-12-08T09:22:34.363Z,19.80
2022-12-08T09:25:36.921Z,22.60
2022-12-08T09:28:38.680Z,21.57
2022-12-08T09:31:40.861Z,23.23
2022-12-08T09:34:44.426Z,20.47
2022-12-08T09:37:49.281Z,21.23
2022-12-08T09:40:53.134Z,19.83
2022-12-08T09:44:13.266Z,23.70
2022-12-08T09:47:36.636Z,20.07
2022-12-08T09:50:45.266Z,22.23
2022-12-08T09:53:56.285Z,24.00
2022-12-08T09:57:03.407Z,21.60
2022-12-08T10:00:07.474Z,26.93
2022-12-08T10:03:16.614Z,20.27
2022-12-08T10:06:30.609Z,22.73
2022-12-08T10:09:42.962Z,20.53
2022-12-08T10:12:48.279Z,24.50
2022-12-08T10:16:24.266Z,24.40
2022-12-08T10:19:31.126Z,23.00
2022-12-08T10:22:38.693Z,21.90
2022-12-08T10:25:53.368Z,21.47
2022-12-08T10:29:01.239Z,22.83
2022-12-08T10:32:16.682Z,23.13
2022-12-08T10:35:21.103Z,25.57
2022-12-08T10:38:26.301Z,22.90
2022-12-08T10:41:28.029Z,24.07
2022-12-08T10:44:29.855Z,22.60
2022-12-08T10:47:36.808Z,21.60
2022-12-08T10:50:47.637Z,20.87
2022-12-08T10:53:49.280Z,24.77
2022-12-08T10:56:55.837Z,24.33
2022-12-08T10:59:57.609Z,18.83
2022-12-08T11:03:04.556Z,21.87
2022-12-08T11:06:16.391Z,24.87
2022-12-08T11:09:17.990Z,22.40
2022-12-08T11:12:21.449Z,21.70
2022-12-08T11:15:23.149Z,20.60
2022-12-08T11:18:40.941Z,20.33
2022-12-08T11:21:42.861Z,20.97
2022-12-08T11:24:44.496Z,22.50
2022-12-08T11:27:49.174Z,18.83
2022-12-08T11:31:00.533Z,20.50
2022-12-08T11:34:03.206Z,17.00
2022-12-08T11:37:06.999Z,19.47
2022-12-08T11:40:26.434Z,16.97
2022-12-08T11:43:30.924Z,17.40
2022-12-08T11:46:42.174Z,16.30
2022-12-08T11:52:51.076Z,14.10
2022-12-08T11:55:57.929Z,12.13
2022-12-08T11:59:22.045Z,11.43
2022-12-08T12:02:25.188Z,10.60
2022-12-08T12:06:05.360Z,14.67
2022-12-08T12:09:20.962Z,12.07
2022-12-08T12:12:43.948Z,10.83
2022-12-08T12:16:21.072Z,11.63
2022-12-08T12:19:27.147Z,19.70
2022-12-08T12:22:34.202Z,14.10
2022-12-08T12:25:50.999Z,14.23
2022-12-08T12:29:13.184Z,13.53
2022-12-08T12:32:14.966Z,13.13
2022-12-08T12:35:27.511Z,15.40
2022-12-08T12:39:01.273Z,14.90
2022-12-08T12:42:04.657Z,12.90
2022-12-08T12:45:18.247Z,12.23
2022-12-08T12:48:23.691Z,15.30
2022-12-08T12:51:47.423Z,11.53
2022-12-08T12:54:51.821Z,14.83
2022-12-08T12:57:56.353Z,17.33
2022-12-08T13:01:13.107Z,15.93
2022-12-08T13:04:16.211Z,16.40
2022-12-08T13:07:33.199Z,11.60
2022-12-08T13:10:46.609Z,10.27
2022-12-08T13:14:03.584Z,11.23
2022-12-08T13:17:12.129Z,12.07
2022-12-08T13:20:23.613Z,12.57
2022-12-08T13:23:37.341Z,14.77
2022-12-08T13:26:49.489Z,17.63
2022-12-08T13:30:40.967Z,11.60
2022-12-08T13:33:42.993Z,13.80
2022-12-08T13:37:10.536Z,12.63
2022-12-08T13:40:28.028Z,12.47
2022-12-08T13:44:10.603Z,12.47
2022-12-08T13:47:34.009Z,14.80
2022-12-08T13:55:01.866Z,10.80
2022-12-08T13:57:36.680Z,11.97
2022-12-08T14:00:39.163Z,12.83
2022-12-08T14:04:30.572Z,10.60
2022-12-08T14:07:15.943Z,13.87
2022-12-08T14:10:27.826Z,14.40
2022-12-08T14:13:31.439Z,13.13
2022-12-08T14:16:37.655Z,15.50
2022-12-08T14:19:39.677Z,14.27
2022-12-08T14:22:41.711Z,12.53
2022-12-08T14:25:47.683Z,16.47
2022-12-08T14:28:49.838Z,13.70
2022-12-08T14:31:53.577Z,15.13
2022-12-08T14:34:58.484Z,12.97
2022-12-08T14:38:20.196Z,14.83
2022-12-08T14:41:27.975Z,13.30
2022-12-08T14:44:33.078Z,12.40
2022-12-08T14:47:34.981Z,12.70
2022-12-08T14:50:44.267Z,16.73
2022-12-08T14:54:20.770Z,14.07
2022-12-08T14:57:22.925Z,12.77
2022-12-08T15:00:25.130Z,14.80
2022-12-08T15:03:31.059Z,13.50
2022-12-08T15:06:32.691Z,14.20
2022-12-08T15:09:37.230Z,16.00
2022-12-08T15:12:38.953Z,14.87
2022-12-08T15:15:57.872Z,13.10
2022-12-08T15:19:16.530Z,13.33
2022-12-08T15:22:22.839Z,16.47
2022-12-08T15:25:25.190Z,18.57
2022-12-08T15:28:30.697Z,15.60
2022-12-08T15:31:32.621Z,14.27
2022-12-08T15:34:34.365Z,15.30
2022-12-08T15:37:35.940Z,18.10
2022-12-08T15:40:37.776Z,15.63
2022-12-08T15:43:39.463Z,13.37
2022-12-08T15:46:41.160Z,17.87
2022-12-08T15:49:42.903Z,15.60
2022-12-08T15:52:44.624Z,19.27
2022-12-08T15:56:10.718Z,17.93
2022-12-08T15:59:17.111Z,15.57
2022-12-08T16:02:22.524Z,18.33
2022-12-08T16:05:44.299Z,14.67
2022-12-08T16:08:56.267Z,15.47
2022-12-08T16:13:27.248Z,21.03
2022-12-08T16:16:03.446Z,18.00
2022-12-08T16:19:05.143Z,16.90
2022-12-08T16:25:46.078Z,19.07
2022-12-08T16:28:54.442Z,16.30
2022-12-08T16:31:56.542Z,15.80
2022-12-08T16:34:58.377Z,19.90
2022-12-08T16:38:00.027Z,19.00
2022-12-08T16:41:20.551Z,21.63
2022-12-08T16:44:22.268Z,17.50
2022-12-08T16:47:23.943Z,17.13
2022-12-08T16:50:30.824Z,22.10
2022-12-08T16:53:32.427Z,18.27
2022-12-08T16:56:34.031Z,19.27
2022-12-08T16:59:37.469Z,19.87
2022-12-08T17:02:39.126Z,19.90
2022-12-08T17:05:42.210Z,21.70
2022-12-08T17:08:44.928Z,18.40
2022-12-08T17:11:46.527Z,20.20
2022-12-08T17:14:48.292Z,24.57
2022-12-08T17:17:50.628Z,26.83
2022-12-08T17:20:52.369Z,21.93
2022-12-08T17:23:54.563Z,18.40
2022-12-08T17:26:58.173Z,20.73
2022-12-08T17:29:59.885Z,19.43
2022-12-08T17:33:01.573Z,20.10
2022-12-08T17:36:03.525Z,19.20
2022-12-08T17:39:05.710Z,18.20
2022-12-08T17:42:07.530Z,19.87
2022-12-08T17:45:09.858Z,20.33
2022-12-08T17:48:13.512Z,17.57
2022-12-08T17:51:16.587Z,16.23
2022-12-08T17:54:19.338Z,20.00
2022-12-08T17:57:31.484Z,17.97
2022-12-08T18:00:39.911Z,26.53
2022-12-08T18:03:41.715Z,22.60
2022-12-08T18:06:43.539Z,20.93
2022-12-08T18:09:45.171Z,22.90
2022-12-08T18:12:46.944Z,20.93
2022-12-08T18:15:48.557Z,19.37
2022-12-08T18:18:50.346Z,16.93
2022-12-08T18:21:54.235Z,22.13
2022-12-08T18:24:55.949Z,20.90
2022-12-08T18:27:57.682Z,25.60
2022-12-08T18:30:59.509Z,21.20
2022-12-08T18:34:01.883Z,25.83
2022-12-08T18:37:03.665Z,19.87
2022-12-08T18:40:06.216Z,22.47
2022-12-08T18:43:08.040Z,21.53
2022-12-08T18:46:11.504Z,27.93
2022-12-08T18:49:15.769Z,21.67
2022-12-08T18:52:26.916Z,25.30
2022-12-08T18:55:32.880Z,22.87
2022-12-08T18:58:35.255Z,19.60
2022-12-08T19:01:39.110Z,27.37
2022-12-08T19:04:43.442Z,25.23
2022-12-08T19:07:45.744Z,25.27
2022-12-08T19:10:47.555Z,21.23
2022-12-08T19:13:50.014Z,20.03
2022-12-08T19:16:51.897Z,22.93
2022-12-08T19:19:54.093Z,20.90
2022-12-08T19:22:55.727Z,25.90
2022-12-08T19:25:59.472Z,19.40
2022-12-08T19:29:01.455Z,23.10
2022-12-08T19:32:04.980Z,23.83
2022-12-08T19:35:10.031Z,23.30
2022-12-08T19:38:11.909Z,24.50
2022-12-08T19:41:32.397Z,23.53
2022-12-08T19:44:34.160Z,20.87
2022-12-08T19:47:37.970Z,19.97
2022-12-08T19:50:40.552Z,23.40
2022-12-08T19:53:47.385Z,26.90
2022-12-08T19:56:52.899Z,26.37
2022-12-08T19:59:57.725Z,21.70
2022-12-08T20:03:02.728Z,25.57
2022-12-08T20:06:04.728Z,22.93
2022-12-08T20:09:07.226Z,26.60
2022-12-08T20:12:09.046Z,28.53
2022-12-08T20:15:11.510Z,22.00
2022-12-08T20:18:15.447Z,25.10
2022-12-08T20:21:17.490Z,25.13
2022-12-08T20:24:19.770Z,23.20
2022-12-08T20:27:23.467Z,24.90
2022-12-08T20:30:25.063Z,20.00
2022-12-08T20:33:26.935Z,22.17
2022-12-08T20:36:29.369Z,21.50
2022-12-08T20:39:31.344Z,21.00
2022-12-08T20:42:33.285Z,26.10
2022-12-08T20:45:34.965Z,21.53
2022-12-08T20:48:36.989Z,21.17
2022-12-08T20:51:38.893Z,20.13
2022-12-08T20:54:40.893Z,23.60
2022-12-08T20:57:42.505Z,25.27
2022-12-08T21:00:44.151Z,25.77
2022-12-08T21:03:46.506Z,21.70
2022-12-08T21:06:48.988Z,24.53
2022-12-08T21:09:53.659Z,23.30
2022-12-08T21:12:55.550Z,21.90
2022-12-08T21:15:58.044Z,25.03
2022-12-08T21:19:00.366Z,21.73
2022-12-08T21:22:02.171Z,28.20
2022-12-08T21:25:04.523Z,29.03
2022-12-08T21:28:06.763Z,24.30
2022-12-08T21:31:10.323Z,24.20
2022-12-08T21:34:12.463Z,24.07
2022-12-08T21:37:14.245Z,24.23
2022-12-08T21:40:16.076Z,22.07
2022-12-08T21:43:18.113Z,25.40
2022-12-08T21:46:21.265Z,26.03
2022-12-08T21:49:23.519Z,23.07
2022-12-08T21:52:27.262Z,24.70
2022-12-08T21:55:32.254Z,25.03
2022-12-08T21:58:34.492Z,25.87
2022-12-08T22:01:36.392Z,25.17
2022-12-08T22:04:42.171Z,27.30
2022-12-08T22:07:43.948Z,24.87
2022-12-08T22:10:48.901Z,28.70
2022-12-08T22:13:50.824Z,27.03
2022-12-08T22:16:52.613Z,23.83
2022-12-08T22:19:54.430Z,27.53
2022-12-08T22:22:56.154Z,23.57
2022-12-08T22:25:59.778Z,26.47
2022-12-08T22:29:02.095Z,24.57
2022-12-08T22:32:23.545Z,34.70
2022-12-08T22:35:28.483Z,24.60
2022-12-08T22:38:34.013Z,23.63
2022-12-08T22:41:36.406Z,24.23
2022-12-08T22:44:38.389Z,25.73
2022-12-08T22:47:40.132Z,25.03
2022-12-08T22:50:42.173Z,23.43
2022-12-08T22:53:44.738Z,24.07
2022-12-08T22:56:46.341Z,23.30
2022-12-08T22:59:47.968Z,21.50
2022-12-08T23:02:49.763Z,24.90
2022-12-08T23:05:52.125Z,22.60
2022-12-08T23:08:54.807Z,22.03
2022-12-08T23:11:56.754Z,24.63
2022-12-08T23:14:58.873Z,24.23
2022-12-08T23:18:00.527Z,28.50
2022-12-08T23:21:07.082Z,26.43
2022-12-08T23:24:08.765Z,25.77
2022-12-08T23:27:10.629Z,24.43
2022-12-08T23:30:13.218Z,25.70
2022-12-08T23:33:14.893Z,26.40
2022-12-08T23:36:18.500Z,22.53
2022-12-08T23:39:24.125Z,28.53
2022-12-08T23:42:25.759Z,23.30
2022-12-08T23:45:27.405Z,26.70
2022-12-08T23:48:29.316Z,23.20
2022-12-08T23:51:31.176Z,23.27
2022-12-08T23:54:33.759Z,28.87
2022-12-08T23:57:36.241Z,23.77
